x

Nanakwa Shoal (46181) Wave Buoy

9:00pm - Sat 25th Apr 2015 All times are PDT. -7 hours from GMT.

  • Sig Wave height 0.7ft
  • Peak Period 3s
  • Wind
    13mph, 16mph gusts
  • Sea Temp 50°f
  • Air Temp 51°f
  • Sea Pressure 1012.8mb
  • Nanakwa Shoal
  • Nanakwa Shoal

More Historic Weather Station data

Upgrade to MSW Pro to gain access to the past 30 days of data for over 8000 Wavebouys and Weather Stations around the globe.

Join Pro

Comparision Forecast

View Surf forecast
   
Sat 04/25 9:00pm 0.7ft 3s 13 16 mph 1012.8mb 50f 51f
8:00pm 0.3ft 2s 18 22 mph 1012.6mb 50f 52f
7:00pm  -  5s 11
mph
1012.7mb 51f 53f
6:00pm  -  5s 4 7 mph 1012.9mb 51f 53f
5:00pm  -  5s  -  2 mph 1013.1mb 52f 55f
4:00pm  -  5s  -  2 mph 1013.4mb 51f 53f
3:00pm  -  6s 2
mph
1013.7mb 51f 53f
2:00pm 0.3ft 6s 2
mph
1014mb 51f 53f
1:00pm 0.3ft 2s  -  2 mph 1014.3mb 52f 53f
12:00pm 0.3ft 7s 7 9 mph 1014.4mb 50f 50f
11:00am  -  8s  -  2 mph 1014.8mb 50f 50f
10:00am  -  8s 7 9 mph 1014.8mb 49f 47f
9:00am 0.3ft 8s 9 11 mph 1014.6mb 49f 46f
8:00am  -  7s 11
mph
1014.4mb 49f 46f
7:00am  -  7s 9 11 mph 1014.1mb 49f 45f
6:00am 0.3ft 7s 9 11 mph 1013.5mb 49f 45f
5:00am  -  7s 9 11 mph 1013.2mb 49f 45f
4:00am  -  7s 7
mph
1013.2mb 49f 46f
3:00am  -  6s 2
mph
1012.9mb 49f 46f
2:00am  -  7s  -  4 mph 1012.7mb 49f 46f
1:00am 0.3ft 6s 2
mph
1012.4mb 49f 46f
12:00am 0.3ft 6s  -  mph 1012.1mb 49f 46f
Fri 04/24 11:00pm 0.3ft 6s 2 4 mph 1011.7mb 49f 47f
10:00pm 0.3ft 3s 7
mph
1011.3mb 49f 49f
9:00pm 0.3ft 3s 4 7 mph 1010.5mb 49f 50f
8:00pm 0.3ft 3s 7 9 mph 1009.8mb 50f 50f
7:00pm 0.3ft 2s 9 13 mph 1008.9mb 50f 50f
6:00pm 0.3ft 2s 9 11 mph 1008.7mb 50f 50f
5:00pm 0.3ft 2s 11 16 mph 1008.4mb 50f 50f
4:00pm 0.3ft 2s 11 13 mph 1008.1mb 50f 49f
3:00pm 0.3ft 2s 13
mph
1007.9mb 49f 48f
2:00pm 0.3ft 2s 11 13 mph 1007.9mb 49f 48f
1:00pm 0.3ft 2s 13
mph
1007.6mb 49f 47f
12:00pm 0.7ft 2s 13
mph
1007.3mb 49f 46f
11:00am 0.7ft 2s 11 16 mph 1006.8mb 49f 46f
10:00am 0.7ft 2s 11 13 mph 1006.3mb 49f 46f
9:00am 0.7ft 2s 11 16 mph 1005.8mb 48f 46f
8:00am 0.7ft 2s 13 16 mph 1005.3mb 48f 45f
7:00am 0.3ft 2s 16 20 mph 1004.7mb 48f 45f
6:00am  -  7s 2 4 mph 1004.3mb 48f 44f
5:00am 0.3ft 2s 2 4 mph 1003.8mb 48f 45f
4:00am 0.3ft 2s 2 4 mph 1003.6mb 49f 45f
3:00am  -  6s 9 11 mph 1003.5mb 49f 45f
2:00am  -  6s 2 4 mph 1003.9mb 49f 46f
1:00am 0.3ft 2s 4 7 mph 1004.3mb 49f 45f
12:00am 0.3ft 2s 9 11 mph 1004.6mb 49f 46f
Thu 04/23 11:00pm 0.3ft 2s 9 11 mph 1004.8mb 49f 46f
10:00pm 0.3ft 2s 13 16 mph 1004.6mb 49f 47f
9:00pm 0.7ft 2s 11 13 mph 1005mb 49f 48f
8:00pm 0.7ft 2s 13
mph
1004.3mb 49f 49f
7:00pm 0.3ft 2s 11 13 mph 1004mb 49f 49f
6:00pm 0.3ft 2s 13 16 mph 1003.6mb 50f 51f
5:00pm 0.3ft 2s 13 16 mph 1003.7mb 50f 51f
4:00pm 0.3ft 2s 7 9 mph 1004mb 50f 50f
3:00pm 0.3ft 2s 9 11 mph 1004.7mb 50f 49f
2:00pm 0.3ft 2s 9
mph
1005.6mb 50f 48f
1:00pm 0.3ft 2s 2 4 mph 1006.2mb 50f 48f
12:00pm 0.3ft 2s 2 4 mph 1006.7mb 49f 46f
11:00am 0.7ft 2s 9 13 mph 1006.8mb 48f 45f
10:00am 0.7ft 2s 16 20 mph 1006.6mb 48f 43f
9:00am 0.7ft 2s 20 25 mph 1006.5mb 48f 43f
8:00am 0.7ft 2s 18 20 mph 1006.5mb 48f 42f
7:00am 0.7ft 2s 11 18 mph 1006.2mb 48f 42f
6:00am 0.7ft 2s 11 16 mph 1006mb 48f 42f
5:00am 0.7ft 2s 13 20 mph 1006.4mb 48f 42f
4:00am 0.7ft 2s 13 22 mph 1006.5mb 48f 42f
3:00am 0.3ft 7s 11 16 mph 1007.5mb 48f 43f
2:00am 0.3ft 7s 11 13 mph 1008.4mb 48f 43f
1:00am  -  7s 11 16 mph 1009.2mb 48f 43f
12:00am  -  7s 9 16 mph 1009.9mb 48f 45f
Wed 04/22 11:00pm  -  7s 4
mph
1010.8mb 48f 46f
10:00pm 0.3ft 7s 4
mph
1011.2mb 49f 46f
9:00pm 0.3ft 2s 4 7 mph 1012.1mb 49f 47f
8:00pm 0.3ft 3s 7 9 mph 1012.5mb 48f 48f
7:00pm 0.3ft 3s 9 11 mph 1013.4mb 48f 48f
6:00pm 0.7ft 2s 9 13 mph 1014.2mb 48f 49f
5:00pm 0.3ft 2s 16 18 mph 1015mb 48f 49f
4:00pm 0.3ft 2s 9 11 mph 1015.8mb 48f 49f
3:00pm 0.3ft 2s 9 11 mph 1016.8mb 48f 49f
2:00pm 0.3ft 2s 11 16 mph 1017.6mb 48f 48f
1:00pm 0.7ft 2s 13 16 mph 1018.2mb 48f 47f
12:00pm 0.7ft 2s 16 18 mph 1018.6mb 48f 46f
11:00am 0.7ft 3s 11 16 mph 1019.3mb 48f 46f
10:00am 0.3ft 2s 16 18 mph 1019.5mb 47f 45f
9:00am  -  2s 4 9 mph 1019.7mb 46f 45f
8:00am  -  10s 2 4 mph 1019.9mb 46f 42f
7:00am 0.3ft 8s 4 7 mph 1019.8mb 47f 42f
6:00am 0.3ft 2s 4 9 mph 1019.5mb 47f 42f